Time;durP1;ratioP1;P1;durP2;ratioP2;P2;SDS_P1;SDS_P2;PMS_P1;PMS_P2;Temp;Humidity;BMP_temperature;BMP_pressure;BME280_temperature;BME280_humidity;BME280_pressure;Samples;Min_cycle;Max_cycle;Signal;HPM_P1;HPM_P2
2023/03/04 00:01:53;;;;;;;60.55;33.33;;;;;;;;;;5099460;28;20461;-47
2023/03/04 00:04:18;;;;;;;62.95;36.97;;;;;;;;;;5099273;27;20024;-45
2023/03/04 00:06:43;;;;;;;55.08;32.67;;;;;;;;;;5100908;28;20139;-47
2023/03/04 00:09:09;;;;;;;53.25;31.35;;;;;;;;;;5099166;28;20391;-43
2023/03/04 00:11:34;;;;;;;48.60;27.92;;;;;;;;;;5101567;28;20028;-45
2023/03/04 00:14:00;;;;;;;44.80;27.23;;;;;;;;;;5095607;27;20039;-42
2023/03/04 00:16:26;;;;;;;41.53;26.63;;;;;;;;;;5105508;28;20028;-45
2023/03/04 00:18:57;;;;;;;43.00;25.63;;;;;;;;;;5099119;28;20031;-43
2023/03/04 00:21:31;;;;;;;38.53;25.15;;;;;;;;;;5096764;28;20028;-42
2023/03/04 00:24:00;;;;;;;47.25;27.23;;;;;;;;;;5099273;28;20054;-45
2023/03/04 00:26:25;;;;;;;56.10;32.58;;;;;;;;;;5097449;28;20789;-42
2023/03/04 00:29:03;;;;;;;53.58;28.77;;;;;;;;;;5099906;28;20042;-44
2023/03/04 00:31:28;;;;;;;49.22;29.08;;;;;;;;;;5101907;28;20032;-47
2023/03/04 00:33:53;;;;;;;44.88;27.20;;;;;;;;;;5101855;28;20093;-42
2023/03/04 00:36:19;;;;;;;55.70;28.73;;;;;;;;;;5098503;28;20032;-43
2023/03/04 00:38:44;;;;;;;47.70;27.40;;;;;;;;;;5096910;28;20113;-42
2023/03/04 00:41:09;;;;;;;43.00;26.40;;;;;;;;;;5095970;28;20038;-47
2023/03/04 00:43:35;;;;;;;41.28;24.55;;;;;;;;;;5097733;28;20078;-43
2023/03/04 00:46:03;;;;;;;43.92;26.90;;;;;;;;;;5098647;28;20043;-42
2023/03/04 00:48:29;;;;;;;44.28;25.20;;;;;;;;;;5097952;28;20400;-43
2023/03/04 00:51:00;;;;;;;40.03;25.80;;;;;;;;;;5102880;28;20054;-44
2023/03/04 00:53:25;;;;;;;43.33;25.15;;;;;;;;;;5101130;28;20056;-44
2023/03/04 00:55:51;;;;;;;44.83;26.63;;;;;;;;;;5103342;28;20028;-42
2023/03/04 00:58:16;;;;;;;42.47;24.58;;;;;;;;;;5101639;28;20039;-43
2023/03/04 01:00:42;;;;;;;39.78;25.35;;;;;;;;;;5105933;28;20036;-45
2023/03/04 01:03:16;;;;;;;42.65;25.73;;;;;;;;;;5103692;27;20357;-43
2023/03/04 01:05:42;;;;;;;50.10;26.65;;;;;;;;;;5105193;28;20446;-42
2023/03/04 01:08:07;;;;;;;49.15;25.45;;;;;;;;;;5103209;28;20035;-42
2023/03/04 01:10:32;;;;;;;43.30;26.48;;;;;;;;;;5103620;28;20027;-42
2023/03/04 01:12:58;;;;;;;43.47;26.17;;;;;;;;;;5107385;28;20480;-45
2023/03/04 01:15:30;;;;;;;45.15;26.60;;;;;;;;;;5101464;28;20456;-42
2023/03/04 01:17:55;;;;;;;46.83;27.90;;;;;;;;;;5102903;28;20031;-47
2023/03/04 01:20:20;;;;;;;41.30;25.67;;;;;;;;;;5081617;28;20044;-43
2023/03/04 01:22:46;;;;;;;40.65;25.73;;;;;;;;;;5080241;28;20056;-44
2023/03/04 01:25:11;;;;;;;45.40;26.52;;;;;;;;;;5084245;28;20523;-44
2023/03/04 01:27:36;;;;;;;40.78;25.10;;;;;;;;;;5083560;28;20086;-42
2023/03/04 01:30:08;;;;;;;47.13;25.65;;;;;;;;;;5084238;28;20044;-44
2023/03/04 01:32:33;;;;;;;42.15;25.63;;;;;;;;;;5082225;28;20024;-42
2023/03/04 01:35:05;;;;;;;40.45;25.55;;;;;;;;;;5081402;28;20063;-42
2023/03/04 01:37:30;;;;;;;49.20;27.40;;;;;;;;;;5081792;28;20028;-42
2023/03/04 01:39:56;;;;;;;41.83;24.77;;;;;;;;;;5096153;28;20100;-48
2023/03/04 01:42:32;;;;;;;42.53;26.17;;;;;;;;;;5103715;28;20027;-43
2023/03/04 01:44:58;;;;;;;39.97;24.63;;;;;;;;;;5102095;27;20042;-43
2023/03/04 01:47:27;;;;;;;41.00;24.33;;;;;;;;;;5103028;28;20376;-45
2023/03/04 01:49:55;;;;;;;44.65;25.95;;;;;;;;;;5101854;28;20040;-43
2023/03/04 01:52:30;;;;;;;44.85;26.63;;;;;;;;;;5101103;28;20023;-45
2023/03/04 01:54:56;;;;;;;46.20;26.20;;;;;;;;;;5103440;28;20040;-46
2023/03/04 01:57:24;;;;;;;44.65;26.73;;;;;;;;;;5100243;28;20024;-42
2023/03/04 02:00:20;;;;;;;44.00;27.00;;;;;;;;;;5104189;27;20040;-42
2023/03/04 02:02:48;;;;;;;44.13;26.40;;;;;;;;;;5099506;28;20104;-45
2023/03/04 02:05:14;;;;;;;49.15;27.33;;;;;;;;;;5100336;27;20067;-42
2023/03/04 02:07:50;;;;;;;47.08;27.60;;;;;;;;;;5104391;28;20027;-45
2023/03/04 02:10:15;;;;;;;42.78;26.02;;;;;;;;;;5104872;28;20404;-42
2023/03/04 02:12:41;;;;;;;49.80;27.38;;;;;;;;;;5101263;28;20052;-42
2023/03/04 02:15:07;;;;;;;49.50;26.73;;;;;;;;;;5103540;28;20040;-43
2023/03/04 02:17:32;;;;;;;45.47;26.17;;;;;;;;;;5104442;28;20032;-42
2023/03/04 02:20:26;;;;;;;41.13;26.35;;;;;;;;;;5097932;28;20036;-48
2023/03/04 02:23:13;;;;;;;46.78;26.23;;;;;;;;;;5100653;28;20059;-42
2023/03/04 02:25:46;;;;;;;46.03;27.17;;;;;;;;;;5099488;28;20044;-42
2023/03/04 02:28:11;;;;;;;48.63;27.30;;;;;;;;;;5103579;28;20028;-43
2023/03/04 02:30:37;;;;;;;45.08;26.95;;;;;;;;;;5103518;28;20027;-42
2023/03/04 02:33:02;;;;;;;42.30;25.58;;;;;;;;;;5103553;28;20503;-48
2023/03/04 02:35:33;;;;;;;47.53;27.40;;;;;;;;;;5100213;28;20058;-43
2023/03/04 02:37:59;;;;;;;46.03;27.08;;;;;;;;;;5103073;28;20110;-45
2023/03/04 02:40:30;;;;;;;43.05;25.73;;;;;;;;;;5104201;27;20560;-41
2023/03/04 02:43:00;;;;;;;44.25;25.73;;;;;;;;;;5103157;28;20032;-43
2023/03/04 02:45:50;;;;;;;44.88;25.92;;;;;;;;;;5103311;28;20048;-42
2023/03/04 02:48:18;;;;;;;43.75;25.83;;;;;;;;;;5102842;28;20088;-44
2023/03/04 02:50:55;;;;;;;42.75;25.88;;;;;;;;;;5104364;28;20047;-42
2023/03/04 02:53:21;;;;;;;43.95;26.10;;;;;;;;;;5097783;28;20027;-42
2023/03/04 02:55:47;;;;;;;41.80;24.90;;;;;;;;;;5101160;28;20023;-42
2023/03/04 02:58:12;;;;;;;47.72;26.52;;;;;;;;;;5101586;28;20027;-45
2023/03/04 03:00:39;;;;;;;42.17;26.63;;;;;;;;;;5103915;28;20674;-42
2023/03/04 03:03:16;;;;;;;46.17;25.83;;;;;;;;;;5102184;28;20530;-43
2023/03/04 03:05:42;;;;;;;41.38;25.13;;;;;;;;;;5098113;28;20104;-43
2023/03/04 03:08:07;;;;;;;48.00;27.20;;;;;;;;;;5101428;27;20051;-42
2023/03/04 03:10:33;;;;;;;41.95;25.52;;;;;;;;;;5103647;28;20039;-43
2023/03/04 03:12:59;;;;;;;43.80;26.52;;;;;;;;;;5102800;28;20483;-41
2023/03/04 03:15:33;;;;;;;42.83;25.13;;;;;;;;;;5101537;28;20040;-43
2023/03/04 03:17:58;;;;;;;45.33;25.73;;;;;;;;;;5102011;28;20541;-43
2023/03/04 03:20:24;;;;;;;42.95;25.40;;;;;;;;;;5095620;28;20040;-42
2023/03/04 03:22:55;;;;;;;42.92;26.30;;;;;;;;;;5100649;28;20041;-42
2023/03/04 03:25:20;;;;;;;45.88;26.75;;;;;;;;;;5102565;28;20043;-42
2023/03/04 03:27:51;;;;;;;43.15;25.45;;;;;;;;;;5101283;28;20031;-42
2023/03/04 03:30:17;;;;;;;36.03;25.48;;;;;;;;;;5097726;28;20067;-42
2023/03/04 03:32:42;;;;;;;43.95;24.27;;;;;;;;;;5098889;28;20097;-44
2023/03/04 03:35:09;;;;;;;45.03;25.92;;;;;;;;;;5099419;28;20447;-44
2023/03/04 03:37:34;;;;;;;43.72;24.52;;;;;;;;;;5103122;28;20030;-42
2023/03/04 03:39:59;;;;;;;41.65;24.75;;;;;;;;;;5102266;28;20032;-42
2023/03/04 03:42:25;;;;;;;45.75;25.48;;;;;;;;;;5099807;28;20122;-44
2023/03/04 03:44:50;;;;;;;46.67;24.92;;;;;;;;;;5101165;28;20024;-43
2023/03/04 03:47:18;;;;;;;42.17;25.33;;;;;;;;;;5100555;28;20030;-42
2023/03/04 03:49:44;;;;;;;43.63;26.13;;;;;;;;;;5100270;28;20143;-42
2023/03/04 03:52:10;;;;;;;40.83;24.88;;;;;;;;;;5101413;28;20069;-42
2023/03/04 03:54:35;;;;;;;42.75;24.85;;;;;;;;;;5104152;27;20131;-42
2023/03/04 03:57:00;;;;;;;40.78;24.50;;;;;;;;;;5103294;28;20028;-42
2023/03/04 03:59:26;;;;;;;39.58;23.85;;;;;;;;;;5097315;28;20149;-42
2023/03/04 04:01:51;;;;;;;41.83;25.40;;;;;;;;;;5101718;28;20057;-43
2023/03/04 04:04:17;;;;;;;43.47;24.38;;;;;;;;;;5097955;28;20125;-43
2023/03/04 04:06:51;;;;;;;40.10;25.05;;;;;;;;;;5100902;28;20036;-42
2023/03/04 04:09:17;;;;;;;39.08;24.20;;;;;;;;;;5102170;28;20046;-42
2023/03/04 04:11:42;;;;;;;38.75;24.23;;;;;;;;;;5101536;28;20035;-42
2023/03/04 04:14:11;;;;;;;43.03;25.42;;;;;;;;;;5097945;28;20038;-41
2023/03/04 04:16:37;;;;;;;39.25;23.90;;;;;;;;;;5099290;28;20012;-42
2023/03/04 04:19:19;;;;;;;39.88;25.77;;;;;;;;;;5098713;28;20383;-43
2023/03/04 04:21:45;;;;;;;40.88;25.27;;;;;;;;;;5098288;28;20110;-43
2023/03/04 04:24:16;;;;;;;38.38;24.55;;;;;;;;;;5099768;28;20498;-42
2023/03/04 04:26:42;;;;;;;46.13;25.37;;;;;;;;;;5102825;28;20449;-42
2023/03/04 04:29:08;;;;;;;42.92;23.58;;;;;;;;;;5099129;28;20146;-42
2023/03/04 04:31:34;;;;;;;44.70;24.58;;;;;;;;;;5103646;28;20164;-42
2023/03/04 04:34:00;;;;;;;40.38;23.88;;;;;;;;;;5098304;28;20056;-44
2023/03/04 04:36:25;;;;;;;39.05;25.05;;;;;;;;;;5102515;28;20043;-43
2023/03/04 04:38:51;;;;;;;37.15;23.83;;;;;;;;;;5104027;28;20040;-42
2023/03/04 04:41:23;;;;;;;52.55;24.77;;;;;;;;;;5102097;28;20050;-42
2023/03/04 04:43:48;;;;;;;39.72;24.55;;;;;;;;;;5099283;28;20039;-42
2023/03/04 04:46:15;;;;;;;42.00;23.35;;;;;;;;;;5100897;28;20024;-42
2023/03/04 04:48:41;;;;;;;40.00;24.48;;;;;;;;;;5094234;28;20043;-44
2023/03/04 04:51:09;;;;;;;43.92;25.48;;;;;;;;;;5100787;28;20008;-43
2023/03/04 04:53:35;;;;;;;38.78;24.17;;;;;;;;;;5100241;28;20039;-43
2023/03/04 04:56:14;;;;;;;47.42;26.20;;;;;;;;;;5097294;28;20024;-44
2023/03/04 04:58:41;;;;;;;41.90;24.73;;;;;;;;;;5095331;27;20047;-45
2023/03/04 05:01:13;;;;;;;36.83;24.10;;;;;;;;;;5100414;28;20035;-44
2023/03/04 05:03:40;;;;;;;41.80;24.05;;;;;;;;;;5096434;28;21038;-43
2023/03/04 05:06:07;;;;;;;44.10;24.50;;;;;;;;;;5097789;28;20767;-44
2023/03/04 05:08:33;;;;;;;43.17;24.80;;;;;;;;;;5095652;28;20070;-43
2023/03/04 05:10:59;;;;;;;43.92;26.30;;;;;;;;;;5098757;28;20478;-44
2023/03/04 05:13:30;;;;;;;44.08;25.05;;;;;;;;;;5099990;28;20050;-44
2023/03/04 05:15:56;;;;;;;41.33;25.40;;;;;;;;;;5096338;28;20472;-44
2023/03/04 05:18:23;;;;;;;44.95;25.35;;;;;;;;;;5097265;28;20032;-43
2023/03/04 05:20:53;;;;;;;40.17;24.58;;;;;;;;;;5098395;28;20040;-44
2023/03/04 05:23:19;;;;;;;41.40;24.67;;;;;;;;;;5099278;28;20043;-43
2023/03/04 05:25:51;;;;;;;47.67;25.30;;;;;;;;;;5095864;28;20073;-49
2023/03/04 05:28:17;;;;;;;42.15;24.70;;;;;;;;;;5100314;28;20030;-43
2023/03/04 05:30:43;;;;;;;41.25;25.35;;;;;;;;;;5100884;28;20020;-44
2023/03/04 05:33:10;;;;;;;40.60;24.88;;;;;;;;;;5097857;28;20020;-45
2023/03/04 05:35:37;;;;;;;45.15;25.63;;;;;;;;;;5098971;28;20107;-44
2023/03/04 05:38:11;;;;;;;41.03;24.38;;;;;;;;;;5101251;27;20543;-43
2023/03/04 05:40:37;;;;;;;38.15;23.58;;;;;;;;;;5100129;28;20135;-43
2023/03/04 05:43:03;;;;;;;44.30;25.52;;;;;;;;;;5101876;28;20034;-43
2023/03/04 05:45:28;;;;;;;43.22;25.15;;;;;;;;;;5103053;27;20040;-46
2023/03/04 05:47:54;;;;;;;41.00;24.58;;;;;;;;;;5104613;28;20464;-50
2023/03/04 05:50:21;;;;;;;43.63;24.73;;;;;;;;;;5100605;28;20067;-45
2023/03/04 05:52:46;;;;;;;36.78;22.45;;;;;;;;;;5105267;28;20498;-43
2023/03/04 05:55:12;;;;;;;40.85;24.23;;;;;;;;;;5101865;28;20063;-44
2023/03/04 05:57:37;;;;;;;45.30;26.85;;;;;;;;;;5103090;28;20050;-43
2023/03/04 06:00:14;;;;;;;46.20;26.83;;;;;;;;;;5098922;28;20044;-43
2023/03/04 06:02:43;;;;;;;43.58;25.13;;;;;;;;;;5099912;28;20432;-43
2023/03/04 06:05:09;;;;;;;41.38;23.23;;;;;;;;;;5100985;28;20404;-43
2023/03/04 06:07:35;;;;;;;40.38;23.95;;;;;;;;;;5104543;28;20023;-45
2023/03/04 06:10:01;;;;;;;42.22;24.15;;;;;;;;;;5101167;27;20088;-45
2023/03/04 06:12:32;;;;;;;44.08;24.20;;;;;;;;;;5102652;28;20036;-46
2023/03/04 06:15:04;;;;;;;37.78;23.58;;;;;;;;;;5082755;28;20122;-47
2023/03/04 06:17:30;;;;;;;39.72;24.50;;;;;;;;;;5081302;28;20040;-42
2023/03/04 06:19:55;;;;;;;39.10;24.67;;;;;;;;;;5085057;28;20048;-43
2023/03/04 06:22:21;;;;;;;41.53;24.02;;;;;;;;;;5081474;28;20489;-43
2023/03/04 06:24:46;;;;;;;40.13;24.77;;;;;;;;;;5080520;28;20060;-42
2023/03/04 06:27:21;;;;;;;42.58;24.25;;;;;;;;;;5081279;28;20103;-43
2023/03/04 06:29:46;;;;;;;41.38;24.42;;;;;;;;;;5083887;28;20432;-44
2023/03/04 06:32:12;;;;;;;45.20;24.98;;;;;;;;;;5085805;28;20042;-44
2023/03/04 06:34:43;;;;;;;48.40;26.63;;;;;;;;;;5081480;28;20045;-48
2023/03/04 06:37:08;;;;;;;41.03;24.92;;;;;;;;;;5082454;28;20134;-45
2023/03/04 06:39:36;;;;;;;46.05;25.75;;;;;;;;;;5084548;28;20123;-43
2023/03/04 06:42:02;;;;;;;38.78;24.33;;;;;;;;;;5083498;28;20586;-42
2023/03/04 06:44:27;;;;;;;39.60;23.60;;;;;;;;;;5080043;28;20046;-43
2023/03/04 06:46:53;;;;;;;43.17;23.15;;;;;;;;;;5082024;28;20093;-42
2023/03/04 06:49:18;;;;;;;39.65;22.77;;;;;;;;;;5084370;28;20051;-44
2023/03/04 06:51:52;;;;;;;39.63;23.63;;;;;;;;;;5081415;28;20036;-43
2023/03/04 06:54:18;;;;;;;39.97;24.25;;;;;;;;;;5084160;28;20040;-43
2023/03/04 06:56:44;;;;;;;40.25;22.88;;;;;;;;;;5082349;28;20478;-43
2023/03/04 06:59:09;;;;;;;40.10;23.58;;;;;;;;;;5089204;28;20040;-46
2023/03/04 07:01:35;;;;;;;40.88;24.13;;;;;;;;;;5099325;28;20035;-42
2023/03/04 07:04:01;;;;;;;42.53;23.70;;;;;;;;;;5096648;28;20459;-46
2023/03/04 07:06:28;;;;;;;37.20;22.02;;;;;;;;;;5102468;28;20020;-44
2023/03/04 07:08:54;;;;;;;44.35;25.08;;;;;;;;;;5098445;28;20040;-42
2023/03/04 07:11:28;;;;;;;41.88;22.63;;;;;;;;;;5102178;28;20043;-44
2023/03/04 07:13:53;;;;;;;42.42;23.23;;;;;;;;;;5100883;27;20058;-44
2023/03/04 07:16:21;;;;;;;40.65;23.83;;;;;;;;;;5102456;28;20032;-49
2023/03/04 07:18:53;;;;;;;39.08;23.92;;;;;;;;;;5093263;28;20040;-42
2023/03/04 07:21:18;;;;;;;36.07;22.20;;;;;;;;;;5101378;28;20035;-45
2023/03/04 07:23:47;;;;;;;39.78;22.42;;;;;;;;;;5101025;27;20626;-43
2023/03/04 07:26:12;;;;;;;36.70;22.60;;;;;;;;;;5101664;28;20456;-43
2023/03/04 07:28:38;;;;;;;36.38;22.52;;;;;;;;;;5111809;27;20054;-46
2023/03/04 07:31:12;;;;;;;41.63;22.58;;;;;;;;;;5099089;28;20089;-44
2023/03/04 07:33:38;;;;;;;37.22;21.95;;;;;;;;;;5100282;28;20094;-43
2023/03/04 07:36:03;;;;;;;39.33;21.90;;;;;;;;;;5101807;28;20627;-42
2023/03/04 07:38:29;;;;;;;40.65;22.63;;;;;;;;;;5099906;28;20039;-43
2023/03/04 07:40:58;;;;;;;39.08;24.55;;;;;;;;;;5097122;28;20064;-45
2023/03/04 07:43:23;;;;;;;39.13;23.48;;;;;;;;;;5098622;28;20028;-42
2023/03/04 07:45:48;;;;;;;41.38;24.00;;;;;;;;;;5104043;28;20387;-44
2023/03/04 07:48:20;;;;;;;37.08;22.98;;;;;;;;;;5102802;28;20395;-43
2023/03/04 07:50:45;;;;;;;35.92;21.92;;;;;;;;;;5098083;28;20032;-44
2023/03/04 07:53:11;;;;;;;40.15;22.23;;;;;;;;;;5098433;28;20024;-44
2023/03/04 07:55:36;;;;;;;44.17;23.15;;;;;;;;;;5101493;28;20042;-43
2023/03/04 07:58:02;;;;;;;35.97;22.52;;;;;;;;;;5099604;28;20484;-43
2023/03/04 08:00:40;;;;;;;43.00;23.73;;;;;;;;;;5100739;27;20080;-44
2023/03/04 08:03:05;;;;;;;36.97;21.60;;;;;;;;;;5096332;28;20032;-43
2023/03/04 08:05:33;;;;;;;35.50;22.42;;;;;;;;;;5096194;28;20050;-43
2023/03/04 08:08:02;;;;;;;35.90;21.40;;;;;;;;;;5103219;28;20110;-43
2023/03/04 08:10:27;;;;;;;35.38;20.92;;;;;;;;;;5101460;27;20035;-43
2023/03/04 08:12:59;;;;;;;34.75;20.10;;;;;;;;;;5101431;28;20051;-45
2023/03/04 08:15:26;;;;;;;29.70;20.13;;;;;;;;;;5096267;28;20504;-44
2023/03/04 08:17:51;;;;;;;32.15;19.60;;;;;;;;;;5100622;28;20028;-45
2023/03/04 08:20:20;;;;;;;36.53;24.00;;;;;;;;;;5091893;28;20085;-43
2023/03/04 08:22:45;;;;;;;41.20;24.98;;;;;;;;;;5094483;28;20496;-45
2023/03/04 08:25:16;;;;;;;37.70;23.85;;;;;;;;;;5094457;28;20051;-44
2023/03/04 08:27:42;;;;;;;36.28;23.75;;;;;;;;;;5094689;28;20032;-45
2023/03/04 08:30:08;;;;;;;46.00;24.27;;;;;;;;;;5097615;28;20035;-43
2023/03/04 08:32:34;;;;;;;36.95;25.85;;;;;;;;;;5099270;28;20024;-43
2023/03/04 08:35:01;;;;;;;38.95;24.20;;;;;;;;;;5099927;27;20040;-49
2023/03/04 08:37:35;;;;;;;35.92;25.35;;;;;;;;;;5100325;28;20019;-43
2023/03/04 08:40:00;;;;;;;36.03;24.20;;;;;;;;;;5094892;28;20120;-45
2023/03/04 08:42:26;;;;;;;39.88;24.83;;;;;;;;;;5096987;28;20476;-43
2023/03/04 08:44:57;;;;;;;40.97;24.05;;;;;;;;;;5096796;28;20024;-46
2023/03/04 08:47:22;;;;;;;41.88;23.90;;;;;;;;;;5097252;28;20019;-48
2023/03/04 08:49:54;;;;;;;36.53;22.25;;;;;;;;;;5090999;28;20976;-44
2023/03/04 08:52:19;;;;;;;26.92;18.88;;;;;;;;;;5100136;28;20036;-47
2023/03/04 08:54:45;;;;;;;29.17;20.67;;;;;;;;;;5095093;28;20633;-43
2023/03/04 08:57:13;;;;;;;33.35;19.85;;;;;;;;;;5095312;28;20019;-43
2023/03/04 08:59:38;;;;;;;32.28;20.17;;;;;;;;;;5098280;28;20544;-48
2023/03/04 09:02:09;;;;;;;31.67;19.90;;;;;;;;;;5097992;28;20069;-43
2023/03/04 09:04:35;;;;;;;31.35;19.67;;;;;;;;;;5099142;28;20047;-45
2023/03/04 09:07:01;;;;;;;35.97;20.58;;;;;;;;;;5094102;28;20024;-43
2023/03/04 09:09:32;;;;;;;30.75;20.08;;;;;;;;;;5100063;28;20063;-43
2023/03/04 09:11:57;;;;;;;34.13;21.83;;;;;;;;;;5097528;28;20032;-47
2023/03/04 09:14:29;;;;;;;33.05;20.42;;;;;;;;;;5102716;27;20047;-43
2023/03/04 09:16:54;;;;;;;30.00;20.30;;;;;;;;;;5100230;28;20034;-45
2023/03/04 09:19:19;;;;;;;31.38;19.02;;;;;;;;;;5098165;28;20036;-45
2023/03/04 09:21:45;;;;;;;28.88;19.85;;;;;;;;;;5101759;28;20032;-44
2023/03/04 09:24:10;;;;;;;29.65;20.30;;;;;;;;;;5102820;28;20070;-46
2023/03/04 09:26:35;;;;;;;28.80;18.88;;;;;;;;;;5098055;28;20102;-49
2023/03/04 09:29:04;;;;;;;33.53;18.85;;;;;;;;;;5103207;28;20062;-43
2023/03/04 09:31:30;;;;;;;30.17;19.42;;;;;;;;;;5101480;27;20430;-50
2023/03/04 09:34:01;;;;;;;25.92;19.20;;;;;;;;;;5100430;28;20092;-48
2023/03/04 09:36:27;;;;;;;29.95;20.83;;;;;;;;;;5102396;28;20035;-47
2023/03/04 09:38:52;;;;;;;32.78;19.75;;;;;;;;;;5097928;27;20040;-44
2023/03/04 09:41:22;;;;;;;25.67;19.40;;;;;;;;;;5097061;28;20053;-45
2023/03/04 09:43:49;;;;;;;27.05;18.27;;;;;;;;;;5099316;28;20051;-48
2023/03/04 09:46:25;;;;;;;30.63;19.40;;;;;;;;;;5099282;28;20108;-46
2023/03/04 09:48:53;;;;;;;30.25;17.92;;;;;;;;;;5098453;28;20035;-48
2023/03/04 09:51:34;;;;;;;30.30;18.50;;;;;;;;;;5103175;28;20043;-46
2023/03/04 09:54:09;;;;;;;27.13;18.58;;;;;;;;;;5098603;27;20039;-47
2023/03/04 09:56:37;;;;;;;25.15;18.10;;;;;;;;;;5096715;28;20039;-48
2023/03/04 09:59:36;;;;;;;27.75;17.25;;;;;;;;;;5100794;27;20126;-45
2023/03/04 10:02:17;;;;;;;26.85;17.38;;;;;;;;;;5093017;28;20047;-43
2023/03/04 10:04:58;;;;;;;23.65;16.27;;;;;;;;;;5096830;28;20101;-48
2023/03/04 10:07:36;;;;;;;25.75;17.55;;;;;;;;;;5098321;28;20041;-44
2023/03/04 10:10:23;;;;;;;28.10;17.48;;;;;;;;;;5096892;27;20138;-44
2023/03/04 10:13:00;;;;;;;26.17;17.95;;;;;;;;;;5105195;28;20104;-43
2023/03/04 10:15:45;;;;;;;23.48;16.38;;;;;;;;;;5078341;28;20055;-49
2023/03/04 10:18:18;;;;;;;24.63;17.60;;;;;;;;;;5079792;28;20057;-43
2023/03/04 10:20:43;;;;;;;24.98;16.55;;;;;;;;;;5080928;28;20032;-49
2023/03/04 10:23:26;;;;;;;25.10;16.70;;;;;;;;;;5076259;28;20365;-46
2023/03/04 10:25:53;;;;;;;26.17;16.23;;;;;;;;;;5099806;28;20023;-49
2023/03/04 10:28:32;;;;;;;23.05;16.40;;;;;;;;;;5101114;28;20490;-44
2023/03/04 10:31:13;;;;;;;25.90;16.52;;;;;;;;;;5099964;28;20023;-45
2023/03/04 10:33:40;;;;;;;23.65;16.95;;;;;;;;;;5104771;28;20036;-47
2023/03/04 10:36:46;;;;;;;25.38;17.15;;;;;;;;;;5099697;28;20028;-43
2023/03/04 10:39:18;;;;;;;27.80;17.52;;;;;;;;;;5088248;28;20519;-46
2023/03/04 10:41:53;;;;;;;22.48;16.08;;;;;;;;;;5101253;28;20042;-50
2023/03/04 10:44:19;;;;;;;24.65;16.05;;;;;;;;;;5099095;28;20067;-47
2023/03/04 10:46:47;;;;;;;27.88;17.17;;;;;;;;;;5104944;28;20476;-48
2023/03/04 10:49:17;;;;;;;23.05;14.85;;;;;;;;;;5098733;27;20374;-45
2023/03/04 10:51:53;;;;;;;21.38;15.73;;;;;;;;;;5098562;28;20032;-45
2023/03/04 10:54:30;;;;;;;25.73;16.02;;;;;;;;;;5099651;28;20048;-52
2023/03/04 10:57:15;;;;;;;24.27;16.45;;;;;;;;;;5101871;28;20077;-43
2023/03/04 10:59:52;;;;;;;24.35;16.13;;;;;;;;;;5095068;28;20506;-47
2023/03/04 11:02:33;;;;;;;24.00;16.10;;;;;;;;;;5100423;28;20081;-45
2023/03/04 11:05:22;;;;;;;22.00;14.65;;;;;;;;;;5091688;27;20537;-45
2023/03/04 11:07:53;;;;;;;21.65;15.88;;;;;;;;;;5101188;28;20042;-49
2023/03/04 11:10:32;;;;;;;23.23;15.43;;;;;;;;;;5104811;28;20044;-45
2023/03/04 11:12:59;;;;;;;26.25;15.05;;;;;;;;;;5095616;28;20042;-48
2023/03/04 11:15:30;;;;;;;21.77;14.20;;;;;;;;;;5101361;28;20044;-48
2023/03/04 11:18:01;;;;;;;19.70;14.25;;;;;;;;;;5100565;28;20069;-49
2023/03/04 11:20:41;;;;;;;23.05;15.13;;;;;;;;;;5100081;28;20073;-44
2023/03/04 11:23:14;;;;;;;19.38;15.30;;;;;;;;;;5101659;28;20032;-47
2023/03/04 11:25:47;;;;;;;25.33;17.00;;;;;;;;;;5103399;28;20425;-46
2023/03/04 11:28:21;;;;;;;23.35;16.65;;;;;;;;;;5098959;28;20529;-46
2023/03/04 11:31:02;;;;;;;26.35;16.95;;;;;;;;;;5095576;28;20038;-43
2023/03/04 11:33:41;;;;;;;21.05;15.57;;;;;;;;;;5098287;28;20043;-50
2023/03/04 11:36:27;;;;;;;22.25;15.85;;;;;;;;;;5098753;28;20059;-43
2023/03/04 11:39:10;;;;;;;28.40;17.48;;;;;;;;;;5101714;28;20032;-44
2023/03/04 11:41:45;;;;;;;25.75;17.02;;;;;;;;;;5099157;28;20032;-43
2023/03/04 11:44:12;;;;;;;24.52;16.88;;;;;;;;;;5101240;28;20476;-46
2023/03/04 11:46:53;;;;;;;40.38;23.55;;;;;;;;;;5100367;28;20019;-43
2023/03/04 11:49:45;;;;;;;28.38;18.17;;;;;;;;;;5100327;28;20051;-45
2023/03/04 11:52:16;;;;;;;;;;;;;;;;;;5103890;28;20055;-43
2023/03/04 11:55:12;;;;;;;30.15;18.42;;;;;;;;;;5100455;28;19920;-44
2023/03/04 11:57:41;;;;;;;30.77;18.80;;;;;;;;;;5097450;28;20031;-43
2023/03/04 12:00:37;;;;;;;30.05;19.48;;;;;;;;;;5094093;28;20036;-43
2023/03/04 12:03:03;;;;;;;30.70;19.08;;;;;;;;;;5099181;28;20032;-45
2023/03/04 12:05:50;;;;;;;28.63;19.73;;;;;;;;;;5100924;28;20377;-43
2023/03/04 12:08:31;;;;;;;35.33;19.50;;;;;;;;;;5096593;27;20058;-43
2023/03/04 12:11:06;;;;;;;31.55;19.77;;;;;;;;;;5101213;28;20049;-44
2023/03/04 12:13:35;;;;;;;31.40;20.52;;;;;;;;;;5102256;28;20063;-46
2023/03/04 12:16:22;;;;;;;31.85;19.63;;;;;;;;;;5098571;28;20107;-43
2023/03/04 12:19:05;;;;;;;31.30;21.17;;;;;;;;;;5101686;28;20043;-44
2023/03/04 12:21:55;;;;;;;33.88;19.85;;;;;;;;;;5101382;28;20028;-44
2023/03/04 12:24:45;;;;;;;27.83;18.88;;;;;;;;;;5095567;28;20412;-46
2023/03/04 12:27:22;;;;;;;29.48;17.63;;;;;;;;;;5102998;28;20100;-43
2023/03/04 12:29:53;;;;;;;25.40;18.92;;;;;;;;;;5101818;28;20047;-45
2023/03/04 12:32:53;;;;;;;26.38;17.38;;;;;;;;;;5097524;28;20081;-43
2023/03/04 12:35:41;;;;;;;28.67;18.23;;;;;;;;;;5097845;27;20035;-44
2023/03/04 12:38:11;;;;;;;28.67;18.67;;;;;;;;;;5100611;28;20032;-41
2023/03/04 12:40:49;;;;;;;29.90;18.02;;;;;;;;;;5099109;28;20031;-46
2023/03/04 12:43:40;;;;;;;27.75;18.25;;;;;;;;;;5097093;28;20037;-44
2023/03/04 12:46:24;;;;;;;25.15;17.85;;;;;;;;;;5100654;28;20269;-44
2023/03/04 12:49:11;;;;;;;23.35;16.42;;;;;;;;;;5100955;28;20052;-46
2023/03/04 12:51:52;;;;;;;31.00;17.15;;;;;;;;;;5096631;28;20028;-48
2023/03/04 12:54:31;;;;;;;23.98;17.02;;;;;;;;;;5099612;28;20726;-44
2023/03/04 12:57:01;;;;;;;23.63;16.08;;;;;;;;;;5100917;28;20384;-44
2023/03/04 12:59:34;;;;;;;25.02;15.57;;;;;;;;;;5100693;28;20044;-44
2023/03/04 13:02:12;;;;;;;27.88;16.35;;;;;;;;;;5095756;28;20111;-47
2023/03/04 13:04:43;;;;;;;23.27;16.00;;;;;;;;;;5102219;28;20512;-43
2023/03/04 13:07:49;;;;;;;22.57;15.60;;;;;;;;;;5103530;28;20031;-47
2023/03/04 13:10:17;;;;;;;27.17;14.23;;;;;;;;;;5096265;28;20047;-43
2023/03/04 13:12:46;;;;;;;23.17;14.60;;;;;;;;;;5100549;28;20059;-44
2023/03/04 13:15:23;;;;;;;23.92;15.95;;;;;;;;;;5096893;28;20488;-44
2023/03/04 13:17:48;;;;;;;32.30;15.93;;;;;;;;;;5098189;28;20101;-46
2023/03/04 13:20:29;;;;;;;34.03;16.80;;;;;;;;;;5101764;28;20691;-44
2023/03/04 13:23:32;;;;;;;32.63;16.35;;;;;;;;;;5104556;28;20043;-45
2023/03/04 13:25:57;;;;;;;24.88;15.80;;;;;;;;;;5098013;28;20084;-43
2023/03/04 13:28:38;;;;;;;26.83;15.98;;;;;;;;;;5101156;28;20024;-45
2023/03/04 13:31:12;;;;;;;22.77;13.77;;;;;;;;;;5095656;28;20058;-47
2023/03/04 13:33:37;;;;;;;23.33;13.90;;;;;;;;;;5100757;28;20101;-43
2023/03/04 13:36:31;;;;;;;20.08;13.63;;;;;;;;;;5095594;28;20032;-44
2023/03/04 13:38:59;;;;;;;24.65;13.18;;;;;;;;;;5098939;28;20153;-44
2023/03/04 13:41:58;;;;;;;26.17;14.52;;;;;;;;;;5097933;28;20055;-44
2023/03/04 13:44:43;;;;;;;21.92;13.48;;;;;;;;;;5093693;28;20391;-44
2023/03/04 13:47:15;;;;;;;23.35;13.43;;;;;;;;;;5094146;28;20041;-43
2023/03/04 13:49:40;;;;;;;23.70;14.05;;;;;;;;;;5096941;28;20052;-45
2023/03/04 13:52:38;;;;;;;18.83;13.63;;;;;;;;;;5098326;28;20119;-44
2023/03/04 13:55:39;;;;;;;21.35;13.95;;;;;;;;;;5096287;28;20396;-45
2023/03/04 13:58:24;;;;;;;22.75;14.13;;;;;;;;;;5098134;28;20031;-44
2023/03/04 14:00:54;;;;;;;20.95;14.05;;;;;;;;;;5100942;28;20050;-52
2023/03/04 14:03:30;;;;;;;26.17;13.75;;;;;;;;;;5099950;28;20035;-45
2023/03/04 14:06:30;;;;;;;26.55;12.95;;;;;;;;;;5097111;28;21821;-44
2023/03/04 14:08:57;;;;;;;20.85;13.02;;;;;;;;;;5076285;28;20044;-45
2023/03/04 14:11:44;;;;;;;23.02;12.85;;;;;;;;;;5073808;28;20056;-44
2023/03/04 14:14:13;;;;;;;20.48;13.32;;;;;;;;;;5080852;28;20037;-42
2023/03/04 14:16:51;;;;;;;22.60;13.50;;;;;;;;;;5080940;28;20037;-44
2023/03/04 14:19:41;;;;;;;21.55;13.30;;;;;;;;;;5074514;28;20101;-44
2023/03/04 14:22:27;;;;;;;21.67;13.68;;;;;;;;;;5072603;28;20032;-44
2023/03/04 14:25:11;;;;;;;19.73;13.73;;;;;;;;;;5077303;28;20661;-44
2023/03/04 14:27:38;;;;;;;19.80;13.15;;;;;;;;;;5082564;28;20036;-47
2023/03/04 14:30:24;;;;;;;17.23;11.65;;;;;;;;;;5073670;28;20062;-44
2023/03/04 14:32:53;;;;;;;19.45;12.48;;;;;;;;;;5076949;28;20089;-45
2023/03/04 14:35:25;;;;;;;23.08;13.80;;;;;;;;;;5073646;28;20098;-48
2023/03/04 14:38:02;;;;;;;18.90;12.98;;;;;;;;;;5079110;28;20059;-43
2023/03/04 14:40:33;;;;;;;18.45;12.80;;;;;;;;;;5074954;28;20044;-43
2023/03/04 14:43:04;;;;;;;25.48;13.05;;;;;;;;;;5074622;28;20543;-44